Time;durP1;ratioP1;P1;durP2;ratioP2;P2;SDS_P1;SDS_P2;PMS_P1;PMS_P2;Temp;Humidity;BMP_temperature;BMP_pressure;BME280_temperature;BME280_humidity;BME280_pressure;Samples;Min_cycle;Max_cycle;Signal;HPM_P1;HPM_P2
2021/07/01 00:00:26;;;;;;;;;12.50;12.50;;;;;15.98;69.65;100933.19;5075235;28;45655;-59
2021/07/01 00:02:51;;;;;;;;;10.75;10.75;;;;;15.97;69.15;100926.19;5074354;28;58869;-60
2021/07/01 00:05:17;;;;;;;;;12.00;12.00;;;;;15.96;69.55;100922.66;5076314;28;45406;-61
2021/07/01 00:07:43;;;;;;;;;15.75;13.00;;;;;15.95;69.52;100920.09;5075165;28;45329;-59
2021/07/01 00:10:12;;;;;;;;;11.50;10.00;;;;;15.93;69.22;100929.94;5076423;28;45529;-60
2021/07/01 00:12:37;;;;;;;;;11.50;10.50;;;;;15.89;69.27;100930.09;5073845;28;46013;-62
2021/07/01 00:15:05;;;;;;;;;9.00;7.25;;;;;15.90;69.70;100929.19;5076149;28;45387;-60
2021/07/01 00:17:30;;;;;;;;;13.25;10.75;;;;;15.89;69.65;100934.56;5076386;27;45438;-62
2021/07/01 00:19:56;;;;;;;;;12.50;11.00;;;;;15.89;69.88;100932.75;5076100;28;45281;-61
2021/07/01 00:22:21;;;;;;;;;15.75;15.00;;;;;15.90;70.02;100923.00;5075520;28;57067;-62
2021/07/01 00:24:46;;;;;;;;;14.25;13.25;;;;;15.89;69.88;100924.78;5075210;28;63641;-62
2021/07/01 00:27:12;;;;;;;;;13.00;12.50;;;;;15.86;70.03;100924.94;5075504;28;54390;-61
2021/07/01 00:29:37;;;;;;;;;15.50;14.00;;;;;15.87;69.98;100931.09;5074845;28;45462;-60
2021/07/01 00:32:03;;;;;;;;;16.00;14.75;;;;;15.84;70.39;100932.13;5076107;28;46135;-62
2021/07/01 00:34:28;;;;;;;;;16.75;13.00;;;;;15.82;69.81;100931.34;5075814;28;45368;-62
2021/07/01 00:36:54;;;;;;;;;16.50;13.50;;;;;15.82;69.77;100923.41;5057666;28;45275;-62
2021/07/01 00:39:19;;;;;;;;;13.50;11.25;;;;;15.81;69.86;100932.28;5076281;27;45580;-59
2021/07/01 00:41:45;;;;;;;;;14.00;12.50;;;;;15.79;70.38;100928.88;5073830;28;64176;-60
2021/07/01 00:44:10;;;;;;;;;15.50;12.50;;;;;15.78;69.82;100929.81;5057502;28;48577;-60
2021/07/01 00:46:35;;;;;;;;;11.00;10.75;;;;;15.76;70.01;100932.56;5075420;28;52930;-61
2021/07/01 00:49:01;;;;;;;;;13.25;11.00;;;;;15.77;69.99;100930.75;5076279;28;45217;-61
2021/07/01 00:51:27;;;;;;;;;15.75;10.75;;;;;15.76;69.90;100923.75;5075492;28;45326;-61
2021/07/01 00:53:52;;;;;;;;;14.25;12.00;;;;;15.77;70.00;100926.31;5074175;28;46173;-63
2021/07/01 00:56:19;;;;;;;;;16.00;14.00;;;;;15.74;69.85;100923.84;5074873;28;65666;-61
2021/07/01 00:58:44;;;;;;;;;13.25;13.25;;;;;15.76;70.00;100926.41;5074566;28;45337;-61
2021/07/01 01:01:10;;;;;;;;;13.75;13.00;;;;;15.74;70.47;100922.97;5074002;28;45475;-61
2021/07/01 01:03:36;;;;;;;;;14.25;12.00;;;;;15.75;70.29;100927.34;5057360;28;49412;-61
2021/07/01 01:06:03;;;;;;;;;13.50;11.25;;;;;15.73;70.35;100924.78;5075908;28;45249;-60
2021/07/01 01:08:28;;;;;;;;;14.50;11.50;;;;;15.74;70.70;100921.19;5074227;28;45603;-60
2021/07/01 01:10:54;;;;;;;;;17.25;14.25;;;;;15.70;70.29;100921.44;5074836;28;57101;-61
2021/07/01 01:13:26;;;;;;;;;14.25;10.00;;;;;15.68;69.90;100918.91;5075081;28;45424;-60
2021/07/01 01:15:56;;;;;;;;;13.25;11.00;;;;;15.65;69.85;100929.69;5075367;27;45329;-60
2021/07/01 01:18:22;;;;;;;;;11.00;10.00;;;;;15.65;70.34;100931.44;5075638;27;45306;-62
2021/07/01 01:20:48;;;;;;;;;9.75;9.75;;;;;15.62;70.29;100922.72;5075332;27;45249;-61
2021/07/01 01:23:14;;;;;;;;;12.25;11.00;;;;;15.62;70.31;100921.88;5076866;28;45461;-60
2021/07/01 01:25:42;;;;;;;;;15.25;12.25;;;;;15.62;70.28;100917.44;5077577;28;45444;-60
2021/07/01 01:28:07;;;;;;;;;10.75;9.75;;;;;15.63;70.29;100927.09;5078230;28;45993;-62
2021/07/01 01:30:33;;;;;;;;;13.75;12.50;;;;;15.66;70.44;100919.91;5078698;27;46055;-61
2021/07/01 01:32:58;;;;;;;;;10.25;10.25;;;;;15.65;70.32;100912.91;5078730;28;45484;-61
2021/07/01 01:35:23;;;;;;;;;9.75;9.75;;;;;15.68;70.55;100918.03;5078454;28;53553;-60
2021/07/01 01:37:49;;;;;;;;;10.75;10.50;;;;;15.66;70.71;100926.09;5078913;28;45323;-60
2021/07/01 01:40:14;;;;;;;;;11.75;10.75;;;;;15.64;70.37;100927.97;5077929;28;69469;-61
2021/07/01 01:42:40;;;;;;;;;11.00;11.00;;;;;15.64;70.60;100927.97;5093495;27;61194;-61
2021/07/01 01:45:06;;;;;;;;;12.75;11.50;;;;;15.62;70.68;100928.03;5079045;28;45511;-61
2021/07/01 01:47:31;;;;;;;;;11.00;11.00;;;;;15.57;70.65;100914.19;5078854;28;45316;-59
2021/07/01 01:49:56;;;;;;;;;14.50;12.50;;;;;15.56;70.90;100924.88;5078621;27;45351;-61
2021/07/01 01:52:22;;;;;;;;;14.00;14.00;;;;;15.51;70.93;100930.44;5076674;28;55060;-62
2021/07/01 01:54:47;;;;;;;;;15.00;12.25;;;;;15.48;70.92;100920.88;5077328;28;45497;-60
2021/07/01 01:57:13;;;;;;;;;13.00;13.00;;;;;15.47;71.25;100921.81;5078686;28;45229;-58
2021/07/01 01:59:38;;;;;;;;;11.75;11.75;;;;;15.44;71.33;100918.47;5077555;28;45378;-59
2021/07/01 02:02:04;;;;;;;;;15.00;14.00;;;;;15.43;71.36;100914.97;5078505;28;45200;-61
2021/07/01 02:04:29;;;;;;;;;13.75;12.00;;;;;15.41;71.08;100913.31;5077303;28;45461;-61
2021/07/01 02:06:55;;;;;;;;;16.00;14.50;;;;;15.38;71.11;100913.50;5078436;28;45465;-62
2021/07/01 02:09:21;;;;;;;;;15.75;14.75;;;;;15.32;71.16;100910.25;5077983;28;46221;-61
2021/07/01 02:11:47;;;;;;;;;15.00;14.00;;;;;15.26;71.36;100915.00;5076783;28;45318;-61
2021/07/01 02:14:12;;;;;;;;;13.00;13.00;;;;;15.22;71.53;100914.34;5076436;27;45460;-59
2021/07/01 02:16:38;;;;;;;;;15.25;14.00;;;;;15.16;71.93;100917.31;5078280;27;45584;-61
2021/07/01 02:19:03;;;;;;;;;14.00;14.00;;;;;15.07;71.97;100912.53;5075409;27;46571;-61
2021/07/01 02:21:29;;;;;;;;;14.00;14.00;;;;;15.03;72.21;100914.47;5076185;27;45508;-62
2021/07/01 02:23:54;;;;;;;;;16.75;16.50;;;;;14.96;72.53;100921.91;5076086;28;57756;-61
2021/07/01 02:26:19;;;;;;;;;16.25;12.50;;;;;14.93;72.22;100913.25;5077584;27;54177;-61
2021/07/01 02:28:45;;;;;;;;;14.25;11.25;;;;;14.91;72.73;100918.66;5077222;27;63970;-60
2021/07/01 02:31:10;;;;;;;;;17.25;15.50;;;;;14.90;72.65;100914.28;5077467;27;67849;-62
2021/07/01 02:33:36;;;;;;;;;14.75;12.50;;;;;14.88;72.88;100910.88;5078302;28;45880;-60
2021/07/01 02:36:01;;;;;;;;;15.25;13.25;;;;;14.86;73.15;100913.56;5077538;27;45714;-60
2021/07/01 02:38:26;;;;;;;;;14.75;13.75;;;;;14.83;73.47;100913.75;5077444;27;51291;-60
2021/07/01 02:40:52;;;;;;;;;15.00;13.00;;;;;14.80;73.60;100910.38;5077124;27;57709;-60
2021/07/01 02:43:17;;;;;;;;;15.75;14.25;;;;;14.79;73.85;100906.91;5077854;27;45335;-61
2021/07/01 02:45:43;;;;;;;;;11.75;11.75;;;;;14.77;73.96;100903.47;5077935;27;45284;-59
2021/07/01 02:48:08;;;;;;;;;20.25;16.25;;;;;14.77;74.31;100908.78;5076990;28;69843;-60
2021/07/01 02:50:33;;;;;;;;;18.50;14.75;;;;;14.77;74.21;100902.59;5077680;28;45323;-61
2021/07/01 02:52:59;;;;;;;;;17.00;14.25;;;;;14.77;74.24;100903.47;5076334;28;45742;-61
2021/07/01 02:55:24;;;;;;;;;15.00;14.00;;;;;14.78;74.50;100905.19;5077273;28;50496;-60
2021/07/01 02:57:50;;;;;;;;;22.50;16.00;;;;;14.73;74.32;100894.81;5077450;28;45802;-62
2021/07/01 03:00:15;;;;;;;;;14.50;14.50;;;;;14.78;74.84;100904.31;5077564;28;45400;-60
2021/07/01 03:02:41;;;;;;;;;16.50;15.00;;;;;14.78;74.52;100904.31;5077819;28;45351;-60
2021/07/01 03:05:06;;;;;;;;;15.25;14.75;;;;;14.80;74.65;100905.09;5077683;28;45275;-61
2021/07/01 03:07:32;;;;;;;;;15.50;15.50;;;;;14.79;74.73;100901.59;5058960;28;46469;-59
2021/07/01 03:09:57;;;;;;;;;20.25;16.75;;;;;14.81;74.53;100899.72;5077245;28;45319;-62
2021/07/01 03:12:23;;;;;;;;;17.75;14.75;;;;;14.83;74.54;100892.56;5059299;28;45361;-60
2021/07/01 03:14:49;;;;;;;;;19.50;15.50;;;;;14.85;74.50;100892.50;5042592;28;45281;-60
2021/07/01 03:17:14;;;;;;;;;15.00;15.00;;;;;14.84;74.55;100890.75;5077021;28;47276;-61
2021/07/01 03:19:40;;;;;;;;;12.25;12.00;;;;;14.83;74.79;100889.03;5076652;28;61163;-59
2021/07/01 03:22:05;;;;;;;;;17.25;14.25;;;;;14.83;74.58;100899.63;5077243;28;45812;-62
2021/07/01 03:24:30;;;;;;;;;20.25;17.25;;;;;14.83;74.87;100896.97;5077238;28;45518;-61
2021/07/01 03:26:59;;;;;;;;;17.25;14.75;;;;;14.84;74.75;100886.31;5076392;28;55502;-60
2021/07/01 03:29:25;;;;;;;;;17.50;15.75;;;;;14.88;74.88;100889.69;5075858;28;45573;-60
2021/07/01 03:31:50;;;;;;;;;16.75;15.25;;;;;14.91;75.02;100894.81;5076982;28;45378;-61
2021/07/01 03:34:15;;;;;;;;;18.50;17.00;;;;;14.92;74.95;100901.81;5076400;28;60970;-61
2021/07/01 03:36:41;;;;;;;;;22.25;17.00;;;;;14.94;74.79;100888.47;5058292;28;60249;-61
2021/07/01 03:39:06;;;;;;;;;13.25;12.00;;;;;14.95;75.07;100893.72;5058535;28;45338;-63
2021/07/01 03:41:31;;;;;;;;;14.25;14.00;;;;;14.93;75.00;100887.63;5076171;28;59008;-61
2021/07/01 03:43:57;;;;;;;;;16.25;13.50;;;;;14.92;74.60;100890.34;5077074;28;45411;-60
2021/07/01 03:46:22;;;;;;;;;19.75;15.25;;;;;14.89;74.82;100886.94;5069851;28;46136;-60
2021/07/01 03:48:48;;;;;;;;;17.00;16.25;;;;;14.85;74.63;100887.19;5076668;27;45364;-61
2021/07/01 03:51:13;;;;;;;;;15.75;15.25;;;;;14.81;74.88;100894.44;5076571;27;52732;-62
2021/07/01 03:53:39;;;;;;;;;19.75;17.75;;;;;14.77;75.30;100897.31;5076075;27;59995;-61
2021/07/01 03:56:04;;;;;;;;;22.25;17.75;;;;;14.70;75.45;100896.78;5076484;27;46042;-62
2021/07/01 03:58:29;;;;;;;;;21.50;16.75;;;;;14.68;75.57;100902.13;5076300;27;47238;-60
2021/07/01 04:00:55;;;;;;;;;18.75;18.25;;;;;14.64;75.36;100905.88;5076697;27;45312;-61
2021/07/01 04:03:20;;;;;;;;;16.25;15.00;;;;;14.63;75.69;100903.31;5075228;28;45466;-62
2021/07/01 04:05:46;;;;;;;;;21.00;18.25;;;;;14.63;75.41;100906.81;5076122;27;49143;-60
2021/07/01 04:08:11;;;;;;;;;16.50;15.00;;;;;14.61;75.31;100896.31;5076660;27;45397;-60
2021/07/01 04:10:36;;;;;;;;;19.75;16.50;;;;;14.62;75.07;100899.78;5075931;27;52984;-61
2021/07/01 04:13:02;;;;;;;;;17.25;17.25;;;;;14.64;74.71;100894.44;5075328;28;45251;-59
2021/07/01 04:15:27;;;;;;;;;18.75;17.50;;;;;14.67;74.83;100894.28;5076249;27;46074;-62
2021/07/01 04:17:53;;;;;;;;;17.25;17.25;;;;;14.69;74.58;100892.41;5076039;27;45370;-61
2021/07/01 04:20:18;;;;;;;;;19.00;17.75;;;;;14.73;74.35;100894.81;5076322;27;45272;-63
2021/07/01 04:22:44;;;;;;;;;21.25;19.00;;;;;14.77;74.44;100900.81;5076782;27;45517;-59
2021/07/01 04:25:10;;;;;;;;;17.00;15.25;;;;;14.82;73.94;100898.78;5075927;28;46114;-63
2021/07/01 04:27:35;;;;;;;;;17.75;16.00;;;;;14.86;74.20;100894.19;5076151;27;45370;-63
2021/07/01 04:30:01;;;;;;;;;17.50;16.00;;;;;14.92;73.59;100903.59;5074838;28;45348;-61
2021/07/01 04:32:26;;;;;;;;;16.25;16.25;;;;;14.94;73.71;100901.72;5074396;28;52055;-63
2021/07/01 04:34:51;;;;;;;;;21.00;19.75;;;;;14.98;73.67;100906.78;5108731;27;46159;-62
2021/07/01 04:37:17;;;;;;;;;20.25;18.00;;;;;15.03;73.29;100912.69;5076174;27;45804;-60
2021/07/01 04:39:42;;;;;;;;;20.00;18.00;;;;;15.10;73.26;100909.72;5076173;27;45350;-63
2021/07/01 04:42:08;;;;;;;;;22.50;18.00;;;;;15.19;73.24;100919.81;5075584;27;45531;-61
2021/07/01 04:44:34;;;;;;;;;19.25;17.25;;;;;15.27;73.02;100920.25;5075443;27;46433;-58
2021/07/01 04:47:00;;;;;;;;;20.25;17.25;;;;;15.36;72.38;100918.88;5075439;28;45471;-60
2021/07/01 04:49:25;;;;;;;;;18.75;16.50;;;;;15.44;72.21;100916.69;5056976;28;54533;-62
2021/07/01 04:51:51;;;;;;;;;16.50;16.50;;;;;15.51;72.30;100916.34;5075923;28;45505;-61
2021/07/01 04:54:16;;;;;;;;;18.25;17.00;;;;;15.59;72.04;100917.59;5075276;28;58984;-60
2021/07/01 04:56:45;;;;;;;;;19.00;16.00;;;;;15.67;71.73;100913.66;5057091;28;55147;-62
2021/07/01 04:59:11;;;;;;;;;19.25;16.00;;;;;15.68;71.37;100913.59;5075533;28;45402;-59
2021/07/01 05:01:37;;;;;;;;;16.75;16.50;;;;;15.67;71.21;100919.84;5091470;27;45383;-59
2021/07/01 05:04:03;;;;;;;;;21.00;18.75;;;;;15.68;71.53;100918.03;5091179;27;45960;-62
2021/07/01 05:06:28;;;;;;;;;22.00;17.25;;;;;15.70;71.23;100917.00;5075483;28;45670;-61
2021/07/01 05:08:54;;;;;;;;;17.00;16.50;;;;;15.72;70.66;100919.56;5075522;28;45317;-60
2021/07/01 05:11:19;;;;;;;;;16.00;15.00;;;;;15.72;70.48;100925.72;5075784;28;45227;-61
2021/07/01 05:13:45;;;;;;;;;17.50;14.25;;;;;15.73;70.63;100924.78;5075168;28;58506;-63
2021/07/01 05:16:10;;;;;;;;;16.75;16.25;;;;;15.77;70.71;100926.31;5073884;28;59689;-62
2021/07/01 05:18:36;;;;;;;;;20.50;17.50;;;;;15.81;70.40;100924.34;5074511;28;58111;-61
2021/07/01 05:21:01;;;;;;;;;20.00;18.00;;;;;15.85;70.45;100925.88;5075468;28;45620;-61
2021/07/01 05:23:26;;;;;;;;;17.50;17.50;;;;;15.87;70.17;100926.66;5056491;28;47190;-59
2021/07/01 05:25:52;;;;;;;;;18.25;17.75;;;;;15.87;70.43;100926.66;5074932;28;45314;-60
2021/07/01 05:28:17;;;;;;;;;22.00;18.50;;;;;15.87;70.44;100921.38;5075034;28;53764;-60
2021/07/01 05:30:43;;;;;;;;;23.25;21.25;;;;;15.90;70.71;100923.88;5075900;28;45150;-62
2021/07/01 05:33:08;;;;;;;;;21.25;20.00;;;;;15.95;70.68;100925.41;5075300;28;45460;-61
2021/07/01 05:35:33;;;;;;;;;19.75;16.50;;;;;15.99;70.34;100921.63;5056553;28;51587;-59
2021/07/01 05:37:59;;;;;;;;;21.50;20.25;;;;;16.00;70.16;100924.19;5074570;28;47437;-60
2021/07/01 05:40:24;;;;;;;;;20.25;18.25;;;;;16.02;70.38;100932.06;5057151;28;45477;-63
2021/07/01 05:42:50;;;;;;;;;21.00;17.25;;;;;16.06;70.34;100930.94;5075353;28;46002;-61
2021/07/01 05:45:15;;;;;;;;;21.75;20.25;;;;;16.15;70.45;100934.84;5074635;28;45397;-60
2021/07/01 05:47:42;;;;;;;;;23.00;20.00;;;;;16.28;70.15;100935.00;5074933;28;45582;-61
2021/07/01 05:50:08;;;;;;;;;21.50;18.50;;;;;16.41;69.67;100943.94;5074736;28;45431;-61
2021/07/01 05:52:35;;;;;;;;;22.75;17.00;;;;;16.48;69.50;100932.03;5074543;28;46173;-61
2021/07/01 05:55:02;;;;;;;;;14.75;12.50;;;;;16.53;69.31;100937.06;5074820;28;45796;-62
2021/07/01 05:57:28;;;;;;;;;24.50;21.50;;;;;16.58;68.75;100934.13;5056256;28;45393;-61
2021/07/01 05:59:53;;;;;;;;;22.50;18.75;;;;;16.67;69.23;100938.03;5074756;28;45504;-60
2021/07/01 06:02:19;;;;;;;;;23.00;20.50;;;;;16.81;69.08;100932.75;5090572;27;48296;-62
2021/07/01 06:04:44;;;;;;;;;21.00;18.00;;;;;17.00;68.74;100935.16;5074448;28;45484;-60
2021/07/01 06:07:10;;;;;;;;;20.25;17.75;;;;;17.25;68.20;100941.59;5056457;28;45463;-62
2021/07/01 06:09:37;;;;;;;;;18.00;16.25;;;;;17.50;67.51;100940.91;5074781;28;45359;-61
2021/07/01 06:12:03;;;;;;;;;18.50;17.50;;;;;17.83;67.01;100933.50;5059242;28;45628;-60
2021/07/01 06:14:28;;;;;;;;;20.25;16.50;;;;;18.23;65.84;100944.22;5077524;28;45478;-61
2021/07/01 06:16:56;;;;;;;;;24.25;19.25;;;;;18.76;65.00;100950.50;5077696;28;45297;-60
2021/07/01 06:19:21;;;;;;;;;17.75;16.50;;;;;19.17;64.39;100945.91;5060251;28;45393;-63
2021/07/01 06:21:48;;;;;;;;;28.50;19.00;;;;;19.37;63.48;100944.47;5059690;28;47225;-64
2021/07/01 06:24:13;;;;;;;;;24.00;22.50;;;;;19.37;63.11;100953.34;5042748;28;45443;-61
2021/07/01 06:26:39;;;;;;;;;21.00;17.75;;;;;19.34;62.52;100958.03;5077811;28;45319;-60
2021/07/01 06:29:04;;;;;;;;;22.50;20.25;;;;;19.27;62.01;100957.63;5077620;28;45437;-62
2021/07/01 06:31:30;;;;;;;;;18.00;17.25;;;;;19.23;62.13;100957.00;5077074;28;45988;-60
2021/07/01 06:33:55;;;;;;;;;19.75;18.75;;;;;19.30;62.05;100967.22;5077213;28;45617;-62
2021/07/01 06:36:23;;;;;;;;;21.75;17.50;;;;;19.33;60.67;100965.19;5077238;28;48224;-61
2021/07/01 06:38:50;;;;;;;;;14.00;10.25;;;;;19.36;60.24;100953.44;5077674;28;45532;-59
2021/07/01 06:41:17;;;;;;;;;16.25;14.00;;;;;19.38;60.91;100956.84;5077081;28;45302;-63
2021/07/01 06:43:44;;;;;;;;;23.50;21.50;;;;;19.45;59.85;100957.28;5077330;28;45239;-63
2021/07/01 06:46:10;;;;;;;;;18.50;14.75;;;;;19.58;59.37;100957.22;5069904;28;45461;-61
2021/07/01 06:48:35;;;;;;;;;22.50;18.75;;;;;19.78;59.38;100955.78;5075892;28;45685;-60
2021/07/01 06:51:01;;;;;;;;;17.00;14.75;;;;;19.92;58.53;100952.16;5075138;28;56682;-63
2021/07/01 06:53:27;;;;;;;;;17.75;13.75;;;;;20.01;58.22;100954.13;5076911;28;45468;-60
2021/07/01 06:55:53;;;;;;;;;14.75;12.25;;;;;20.08;58.45;100957.19;5076453;28;45497;-62
2021/07/01 06:58:19;;;;;;;;;17.50;15.50;;;;;20.15;57.54;100955.78;5077171;27;45511;-62
2021/07/01 07:00:44;;;;;;;;;17.75;16.00;;;;;20.25;57.94;100954.13;5077174;27;46208;-63
2021/07/01 07:03:16;;;;;;;;;15.75;12.00;;;;;20.40;57.37;100961.94;5077098;27;45213;-62
2021/07/01 07:05:41;;;;;;;;;16.00;13.25;;;;;20.47;55.85;100963.19;5076014;28;45464;-63
2021/07/01 07:08:09;;;;;;;;;14.25;11.50;;;;;20.44;55.77;100958.91;5075534;28;50702;-61
2021/07/01 07:10:39;;;;;;;;;14.00;13.00;;;;;20.45;55.81;100967.78;5059443;28;47311;-62
2021/07/01 07:13:04;;;;;;;;;17.00;12.25;;;;;20.42;55.50;100973.38;5075478;28;45272;-66
2021/07/01 07:15:29;;;;;;;;;14.75;12.50;;;;;20.42;55.11;100973.38;5076809;27;45573;-60
2021/07/01 07:18:05;;;;;;;;;13.50;11.50;;;;;20.30;55.21;100972.47;5077458;27;45627;-61
2021/07/01 07:20:31;;;;;;;;;14.75;13.25;;;;;20.13;55.22;100974.56;5076821;27;45514;-60
2021/07/01 07:22:57;;;;;;;;;18.75;14.25;;;;;19.85;54.86;100975.72;5076557;27;45465;-61
2021/07/01 07:25:22;;;;;;;;;12.00;11.75;;;;;19.58;55.49;100973.25;5076758;27;58043;-61
2021/07/01 07:27:53;;;;;;;;;18.50;15.50;;;;;19.25;56.29;100978.22;5076949;27;45609;-64
2021/07/01 07:30:18;;;;;;;;;16.75;15.25;;;;;19.07;56.09;100978.53;5076607;27;45254;-61
2021/07/01 07:32:43;;;;;;;;;15.75;14.25;;;;;18.99;56.99;100978.22;5058425;28;45300;-65
2021/07/01 07:35:10;;;;;;;;;16.75;15.25;;;;;18.97;57.16;100977.47;5058684;28;45347;-59
2021/07/01 07:37:35;;;;;;;;;20.25;16.50;;;;;18.87;57.66;100973.72;5076921;27;45339;-62
2021/07/01 07:40:04;;;;;;;;;18.75;17.50;;;;;18.88;57.88;100970.97;5076405;27;46914;-62
2021/07/01 07:42:29;;;;;;;;;17.25;16.75;;;;;18.95;57.64;100974.91;5075375;28;45439;-62
2021/07/01 07:44:55;;;;;;;;;20.50;14.75;;;;;19.00;57.34;100971.94;5076457;27;45374;-58
2021/07/01 07:47:20;;;;;;;;;19.75;17.50;;;;;18.97;57.62;100972.16;5057731;28;58794;-59
2021/07/01 07:49:46;;;;;;;;;20.50;16.50;;;;;19.01;57.54;100970.97;5076703;28;45918;-61
2021/07/01 07:52:12;;;;;;;;;26.25;20.50;;;;;19.08;58.45;100972.25;5076311;28;45401;-60
2021/07/01 07:54:42;;;;;;;;;19.25;18.50;;;;;19.23;57.33;100974.81;5076684;28;45268;-61
2021/07/01 07:57:07;;;;;;;;;20.75;19.50;;;;;19.47;57.47;100972.19;5076130;28;45435;-60
2021/07/01 07:59:33;;;;;;;;;24.00;20.00;;;;;19.67;57.17;100978.78;5075266;28;66949;-60
2021/07/01 08:02:00;;;;;;;;;22.75;18.25;;;;;19.80;56.65;100976.06;5041301;28;45400;-61
2021/07/01 08:04:26;;;;;;;;;19.75;19.75;;;;;19.84;55.87;100987.38;5058200;28;45263;-61
2021/07/01 08:06:52;;;;;;;;;15.50;14.25;;;;;20.00;56.21;100987.97;5058158;28;45190;-62
2021/07/01 08:09:18;;;;;;;;;26.50;24.25;;;;;20.42;55.82;100979.53;5041252;28;46374;-61
2021/07/01 08:11:43;;;;;;;;;19.75;19.75;;;;;20.84;54.72;100973.72;5076023;28;45275;-60
2021/07/01 08:14:09;;;;;;;;;23.25;22.00;;;;;20.87;54.04;100975.31;5057902;28;45286;-61
2021/07/01 08:16:34;;;;;;;;;24.00;21.00;;;;;20.95;53.99;100986.28;5076114;28;45538;-61
2021/07/01 08:19:00;;;;;;;;;23.25;23.00;;;;;21.04;53.58;100970.47;5057221;28;57402;-60
2021/07/01 08:21:25;;;;;;;;;23.50;20.25;;;;;21.35;53.61;100960.00;5057928;28;45356;-61
2021/07/01 08:23:51;;;;;;;;;24.50;23.75;;;;;21.77;52.76;100964.72;5075725;28;45295;-61
2021/07/01 08:26:17;;;;;;;;;27.00;20.50;;;;;22.04;51.98;100966.97;5076138;28;45535;-62
2021/07/01 08:28:42;;;;;;;;;29.00;22.50;;;;;22.47;51.76;100959.88;5057411;28;45688;-62
2021/07/01 08:31:12;;;;;;;;;26.25;21.75;;;;;22.85;51.32;100953.03;5074592;28;64928;-60
2021/07/01 08:33:42;;;;;;;;;22.00;19.75;;;;;23.17;50.60;100960.09;5075059;28;45390;-62
2021/07/01 08:36:15;;;;;;;;;26.75;24.00;;;;;23.08;49.56;100952.03;5091490;27;45667;-61
2021/07/01 08:38:41;;;;;;;;;21.25;19.50;;;;;22.88;49.07;100952.78;5057138;28;46268;-63
2021/07/01 08:41:41;;;;;;;;;20.00;17.00;;;;;22.87;49.41;100955.59;5075375;28;45344;-62
2021/07/01 08:44:06;;;;;;;;;23.25;19.50;;;;;22.88;49.41;100960.81;5035659;28;45444;-61
2021/07/01 08:46:51;;;;;;;;;24.50;21.00;;;;;22.98;49.34;100955.53;5105508;27;45498;-61
2021/07/01 08:49:37;;;;;;;;;23.25;19.25;;;;;23.16;48.39;100961.09;5075381;27;45389;-62
2021/07/01 08:52:06;;;;;;;;;22.00;19.25;;;;;23.26;48.31;100979.09;5073620;28;45370;-63
2021/07/01 08:54:33;;;;;;;;;23.00;21.00;;;;;23.43;48.51;100961.50;5075385;27;45381;-60
2021/07/01 08:56:59;;;;;;;;;25.50;19.00;;;;;23.49;48.31;100967.19;5075376;27;45278;-61
2021/07/01 08:59:26;;;;;;;;;20.75;20.75;;;;;23.43;48.28;100964.19;5073699;28;47079;-60
2021/07/01 09:01:56;;;;;;;;;24.75;20.50;;;;;23.46;47.96;100967.47;5074018;28;45377;-61
2021/07/01 09:04:23;;;;;;;;;23.00;19.25;;;;;23.80;48.24;100965.41;5075011;27;45327;-61
2021/07/01 09:06:49;;;;;;;;;22.50;18.75;;;;;24.05;47.13;100972.13;5057421;28;45293;-60
2021/07/01 09:09:14;;;;;;;;;19.75;18.75;;;;;23.91;46.99;100965.28;5056911;28;45332;-59
2021/07/01 09:11:40;;;;;;;;;24.00;22.00;;;;;23.99;46.55;100965.44;5055917;28;70324;-61
2021/07/01 09:14:07;;;;;;;;;21.75;19.00;;;;;24.20;46.99;100962.66;5073993;28;45385;-61
2021/07/01 09:16:33;;;;;;;;;27.00;24.25;;;;;24.20;46.02;100965.34;5075804;27;45394;-62
2021/07/01 09:18:59;;;;;;;;;23.50;21.50;;;;;24.07;44.84;100964.78;5073760;28;48442;-62
2021/07/01 09:21:25;;;;;;;;;23.75;19.50;;;;;24.06;45.87;100963.91;5074909;28;45541;-61
2021/07/01 09:23:50;;;;;;;;;19.25;17.25;;;;;24.03;45.18;100971.41;5074912;27;45464;-62
2021/07/01 09:26:23;;;;;;;;;21.25;20.00;;;;;23.88;46.17;100962.88;5107823;27;45317;-61
2021/07/01 09:28:49;;;;;;;;;19.00;17.75;;;;;23.89;44.97;100973.50;5074811;27;45306;-64
2021/07/01 09:31:16;;;;;;;;;15.00;13.00;;;;;24.03;44.92;100966.03;5074719;27;45236;-61
2021/07/01 09:33:41;;;;;;;;;18.75;16.25;;;;;24.12;44.51;100965.19;5073537;28;45429;-61
2021/07/01 09:36:06;;;;;;;;;21.75;17.75;;;;;24.42;44.05;100960.66;5039404;28;58366;-62
2021/07/01 09:38:32;;;;;;;;;16.00;15.50;;;;;24.65;43.28;100966.56;5073081;28;59290;-60
2021/07/01 09:40:57;;;;;;;;;16.50;13.00;;;;;24.72;41.91;100964.13;5073908;28;45441;-61
2021/07/01 09:43:23;;;;;;;;;19.25;15.00;;;;;24.88;42.67;100963.56;5073329;28;51666;-61
2021/07/01 09:45:50;;;;;;;;;23.75;19.75;;;;;25.09;42.27;100966.03;5041766;28;51187;-62
2021/07/01 09:48:15;;;;;;;;;17.25;14.50;;;;;25.19;42.73;100963.28;5076901;28;46401;-64
2021/07/01 09:50:45;;;;;;;;;18.50;16.75;;;;;25.23;42.31;100964.69;5076892;28;45285;-61
2021/07/01 09:53:16;;;;;;;;;22.50;21.25;;;;;25.05;41.80;100967.34;5078410;27;45406;-61
2021/07/01 09:55:41;;;;;;;;;20.00;19.00;;;;;24.99;42.62;100967.94;5077034;28;45200;-62
2021/07/01 09:58:08;;;;;;;;;19.25;17.75;;;;;25.19;42.96;100968.69;5059838;28;45442;-64
2021/07/01 10:00:33;;;;;;;;;22.25;20.00;;;;;25.28;42.34;100966.94;5059854;28;45817;-62
2021/07/01 10:03:02;;;;;;;;;19.50;18.75;;;;;25.10;42.07;100966.88;5076578;28;45323;-61
2021/07/01 10:05:28;;;;;;;;;19.75;19.00;;;;;25.01;42.02;100968.63;5077714;27;45439;-64
2021/07/01 10:07:53;;;;;;;;;23.50;21.25;;;;;25.07;42.37;100964.47;5077516;27;45490;-61
2021/07/01 10:10:20;;;;;;;;;23.00;21.00;;;;;25.27;42.29;100962.56;5077829;27;45204;-61
2021/07/01 10:12:56;;;;;;;;;20.00;20.00;;;;;25.25;42.13;100964.56;5077754;27;45454;-60
2021/07/01 10:15:31;;;;;;;;;24.50;19.00;;;;;25.27;41.94;100964.38;5076650;28;45553;-61
2021/07/01 10:18:07;;;;;;;;;25.00;22.50;;;;;25.44;42.22;100960.06;5075882;28;45340;-61
2021/07/01 10:20:51;;;;;;;;;25.00;21.00;;;;;25.79;41.58;100953.06;5076172;28;45201;-61
2021/07/01 10:23:20;;;;;;;;;23.75;21.75;;;;;26.01;41.63;100957.16;5075850;28;45363;-63
2021/07/01 10:25:51;;;;;;;;;33.50;26.75;;;;;26.32;41.54;100954.09;5077780;27;45422;-62
2021/07/01 10:28:17;;;;;;;;;25.00;21.75;;;;;26.58;40.65;100958.69;5077639;27;46202;-60
2021/07/01 10:30:59;;;;;;;;;27.50;22.75;;;;;26.54;39.78;100958.13;5077698;27;45233;-63
2021/07/01 10:33:29;;;;;;;;;25.00;21.75;;;;;26.38;40.30;100953.47;5078099;28;45337;-64
2021/07/01 10:35:58;;;;;;;;;20.50;19.50;;;;;26.26;40.43;100952.00;5076389;28;45456;-61
2021/07/01 10:38:23;;;;;;;;;25.25;23.50;;;;;26.25;40.24;100961.97;5075753;28;46652;-61
2021/07/01 10:40:51;;;;;;;;;25.25;19.75;;;;;26.18;40.66;100968.13;5077092;28;45511;-62
2021/07/01 10:43:17;;;;;;;;;28.00;24.75;;;;;25.90;40.29;100958.22;5077326;27;45340;-60
2021/07/01 10:45:58;;;;;;;;;24.25;23.25;;;;;25.45;41.01;100962.66;5077340;27;45348;-62
2021/07/01 10:48:24;;;;;;;;;26.75;24.75;;;;;25.15;41.94;100959.19;5076327;28;59425;-62
2021/07/01 10:50:51;;;;;;;;;27.75;24.75;;;;;25.15;42.27;100956.50;5092372;27;45353;-61
2021/07/01 10:53:24;;;;;;;;;21.75;21.25;;;;;25.32;41.71;100959.41;5077121;28;45327;-62
2021/07/01 10:55:49;;;;;;;;;28.25;26.50;;;;;25.28;41.85;100958.00;5058471;28;45561;-62
2021/07/01 10:58:16;;;;;;;;;25.75;21.00;;;;;25.28;41.72;100966.09;5057906;28;63032;-61
2021/07/01 11:00:45;;;;;;;;;30.00;29.50;;;;;25.31;41.70;100963.97;5077244;28;45268;-61
2021/07/01 11:03:12;;;;;;;;;30.75;28.75;;;;;25.55;41.87;100967.13;5059048;28;45301;-60
2021/07/01 11:05:38;;;;;;;;;26.25;25.00;;;;;25.80;41.57;100968.22;5058788;28;45492;-64